Portada
METAR-TAF:

METAR-TAF

Aeroports :

Nan, Tailàndia

latitud: 18-46N, longitud: 100-46E, altitud: 200 m

Observació

L'informe es va fer fa 2 hores i 58 minuts, a les 14:00 UTC
Vent calma
Temperatura 22°C
Humitat 94%
Pressió 1015 hPa
Visibilitat: 8000 m

METAR: VTCN 211400Z 00000KT 8000 NSC 22/21 Q1015 NOSIG

Hora: 23:58 (16:58 UTC)

Pronòstic

L'informe es va fer fa 5 hores i 58 minuts, a les 11:00 UTC
Pronòstic vàlid del 21 a les 12 UTC al 22 a les 12 UTC
Vent 5 kt del Nord-Est
Visibilitat 10 km o més
Escasses núvols a una alçada de 4000 ft
Evolucionant progressivament
l' 21 a les 21 UTC al 21 a les 23 UTC
Visibilitat: 0800 m
Cel ennuvolat a una alçada de 800 ft
boira
Evolucionant progressivament
l' 22 a les 01 UTC al 22 a les 03 UTC
Visibilitat 10 km o més
Escasses núvols a una alçada de 4000 ft

TAF: VTCN 211100Z 2112/2212 04005KT 9999 FEW040 BECMG 2121/2123 0800 FG BKN008 BECMG 2201/2203 9999 NSW FEW040

Observacions i pronòstics meteorològics de més de 4000 aeroports (METAR i TAF).

Les estacions disponibles són els punts grocs i vermells al mapa.

Posi el ratolí al punt desitjat per veure el nom de l'estació.

Feu clic per veure les observacions i els pronòstics meteorològics.

Per canviar el mapa: feu clic els botons verds amb una creu de color negre per apropar; al botó verd amb un guió per allunyar la imatge; o en les fletxes verdes per a mapes adjacents.


METAR-TAF: